Pagrindinis puslapis
METAR-TAF:

METAR-TAF

Oro uostai :

Pernu, Estija

platuma: 58-25-09N, ilguma: 024-28-22E, Aukštis: 14 m

Dabartinis oras

Ataskaita buvo paskelbta 18 minutes, ne 13:20 UTC
Vėjas 8 kt iš Pietvakarių
Temperatūra 3°C
Drėgmė 65%
Slėgis 1011 hPa
Matomumas 10 km arba daugiau

METAR: EEPU 201320Z AUTO 22008KT 9999 FEW029/// OVC041/// 03/M03 Q1011

Laikas: 16:38 (13:38 UTC)


TAF: trūkstamas

Orai ataskaitas ir orų prognozės (METAR, TAF).

turimą stotys yra geltonos ir raudonos taškus žemėlapyje.

Perkelti pele per norėdami pamatyti stoties vardą.

Tada spustelėkite, norėdami matyti oro stebėjimo ir prognozės.

Norėdami pakeisti žemėlapį: spustelėkite ant žalios mygtukų su juodo kryžiaus žemyn,; žalią mygtuką su brūkšneliu, jei norite nutolinti; arba žalių rodyklių gretimoms žemėlapius.


METAR-TAF: